Time;durP1;ratioP1;P1;durP2;ratioP2;P2;SDS_P1;SDS_P2;PMS_P1;PMS_P2;Temp;Humidity;BMP_temperature;BMP_pressure;BME280_temperature;BME280_humidity;BME280_pressure;Samples;Min_cycle;Max_cycle;Signal;HPM_P1;HPM_P2
2023/06/09 02:48:35;;;;;;;;;;;23.40;99.90;;;;;;4593769;19;19978;-27
2023/06/09 02:50:07;;;;;;;;;;;23.40;99.90;;;;;;4596613;19;19918;-35
2023/06/09 02:51:38;;;;;;;;;;;23.40;99.90;;;;;;4595122;19;19922;-34
2023/06/09 02:53:09;;;;;;;;;;;23.30;99.90;;;;;;4596396;19;19933;-31
2023/06/09 02:54:40;;;;;;;;;;;23.30;99.90;;;;;;4595481;19;20288;-31
2023/06/09 02:56:11;;;;;;;;;;;23.30;99.90;;;;;;4596159;19;19921;-26
2023/06/09 02:57:42;;;;;;;;;;;23.20;99.90;;;;;;4595169;19;19930;-28
2023/06/09 02:59:13;;;;;;;;;;;23.20;99.90;;;;;;4594790;19;19955;-26
2023/06/09 03:00:44;;;;;;;;;;;23.20;99.90;;;;;;4595801;19;19923;-29
2023/06/09 03:02:15;;;;;;;;;;;23.10;99.90;;;;;;4595267;19;19927;-27
2023/06/09 03:03:47;;;;;;;;;;;23.10;99.90;;;;;;4596104;19;20260;-26
2023/06/09 03:05:20;;;;;;;;;;;23.10;99.90;;;;;;4596081;19;19921;-26
2023/06/09 03:06:53;;;;;;;;;;;23.00;99.90;;;;;;4593544;19;20420;-27
2023/06/09 03:08:25;;;;;;;;;;;23.00;99.90;;;;;;4593975;19;19923;-26
2023/06/09 03:09:56;;;;;;;;;;;22.90;99.90;;;;;;4593518;19;20270;-34
2023/06/09 03:11:27;;;;;;;;;;;22.90;99.90;;;;;;4594272;19;19919;-35
2023/06/09 03:12:58;;;;;;;;;;;22.90;99.90;;;;;;4592252;19;19922;-31
2023/06/09 03:14:29;;;;;;;;;;;22.80;99.90;;;;;;4591901;19;19928;-33
2023/06/09 03:16:00;;;;;;;;;;;22.80;99.90;;;;;;4593397;19;20343;-34
2023/06/09 03:17:31;;;;;;;;;;;22.80;99.90;;;;;;4593638;19;19919;-26
2023/06/09 03:19:02;;;;;;;;;;;22.80;99.90;;;;;;4594077;19;19942;-26
2023/06/09 03:20:36;;;;;;;;;;;22.80;99.90;;;;;;4594056;19;19924;-28
2023/06/09 03:22:08;;;;;;;;;;;22.80;99.90;;;;;;4593627;19;19944;-27
2023/06/09 03:23:40;;;;;;;;;;;22.80;99.90;;;;;;4593832;19;19919;-32
2023/06/09 03:25:11;;;;;;;;;;;22.70;99.90;;;;;;4593716;19;20241;-30
2023/06/09 03:26:44;;;;;;;;;;;22.70;99.90;;;;;;4593497;19;20324;-37
2023/06/09 03:28:15;;;;;;;;;;;22.70;99.90;;;;;;4593846;19;19919;-27
2023/06/09 03:29:46;;;;;;;;;;;22.60;99.90;;;;;;4593507;19;19937;-26
2023/06/09 03:31:18;;;;;;;;;;;22.60;99.90;;;;;;4593520;19;19936;-32
2023/06/09 03:32:50;;;;;;;;;;;22.70;99.90;;;;;;4593177;19;19919;-28
2023/06/09 03:34:22;;;;;;;;;;;22.70;99.90;;;;;;4592292;19;19915;-28
2023/06/09 03:35:54;;;;;;;;;;;22.70;99.90;;;;;;4593470;19;20264;-27
2023/06/09 03:37:25;;;;;;;;;;;22.70;99.90;;;;;;4593253;19;19963;-27
2023/06/09 03:38:56;;;;;;;;;;;22.80;99.90;;;;;;4593217;19;20252;-26
2023/06/09 03:40:27;;;;;;;;;;;22.80;99.90;;;;;;4593174;19;19951;-30
2023/06/09 03:41:58;;;;;;;;;;;22.80;99.90;;;;;;4593634;19;19939;-29
2023/06/09 03:43:30;;;;;;;;;;;22.80;99.90;;;;;;4591877;19;20317;-29
2023/06/09 03:45:01;;;;;;;;;;;22.80;99.90;;;;;;4592664;19;19915;-30
2023/06/09 03:46:33;;;;;;;;;;;22.80;99.90;;;;;;4593203;19;20238;-27
2023/06/09 03:48:06;;;;;;;;;;;22.20;99.90;;;;;;4592524;19;19934;-25
2023/06/09 03:49:38;;;;;;;;;;;20.50;99.90;;;;;;4593045;19;19919;-28
2023/06/09 03:51:09;;;;;;;;;;;19.50;99.90;;;;;;4592862;19;19915;-26
2023/06/09 03:52:39;;;;;;;;;;;18.80;99.90;;;;;;4593751;19;19922;-26
2023/06/09 03:54:11;;;;;;;;;;;18.40;99.90;;;;;;4591681;19;19927;-32
2023/06/09 03:55:42;;;;;;;;;;;18.20;99.90;;;;;;4592694;19;19919;-26
2023/06/09 03:57:13;;;;;;;;;;;18.10;99.90;;;;;;4591546;19;19922;-28
2023/06/09 03:58:45;;;;;;;;;;;18.00;99.90;;;;;;4592862;19;19943;-28
2023/06/09 04:00:16;;;;;;;;;;;17.90;99.90;;;;;;4592627;19;19915;-32
2023/06/09 04:01:48;;;;;;;;;;;17.90;99.90;;;;;;4592701;19;20252;-27
2023/06/09 04:03:20;;;;;;;;;;;17.90;99.90;;;;;;4592527;19;19962;-25
2023/06/09 04:04:51;;;;;;;;;;;17.80;99.90;;;;;;4593093;19;19926;-25
2023/06/09 04:06:22;;;;;;;;;;;17.80;99.90;;;;;;4591452;19;19982;-31
2023/06/09 04:07:54;;;;;;;;;;;17.80;99.90;;;;;;4592098;19;19918;-25
2023/06/09 04:09:26;;;;;;;;;;;17.70;99.90;;;;;;4592593;19;19911;-27
2023/06/09 04:10:57;;;;;;;;;;;17.70;99.90;;;;;;4593135;19;19923;-33
2023/06/09 04:12:30;;;;;;;;;;;17.70;99.90;;;;;;4590721;19;19919;-32
2023/06/09 04:14:01;;;;;;;;;;;17.80;99.90;;;;;;4591362;19;19971;-28
2023/06/09 04:15:32;;;;;;;;;;;17.80;99.90;;;;;;4593000;19;19941;-35
2023/06/09 04:17:03;;;;;;;;;;;17.80;99.90;;;;;;4592282;19;20360;-26
2023/06/09 04:18:35;;;;;;;;;;;17.70;99.90;;;;;;4592316;19;19911;-29
2023/06/09 04:20:07;;;;;;;;;;;17.80;99.90;;;;;;4592916;19;19919;-31
2023/06/09 04:21:39;;;;;;;;;;;17.70;99.90;;;;;;4591284;19;20486;-30
2023/06/09 04:23:10;;;;;;;;;;;17.80;99.90;;;;;;4591790;19;19915;-28
2023/06/09 04:24:41;;;;;;;;;;;17.70;99.90;;;;;;4592060;19;20220;-27
2023/06/09 04:26:13;;;;;;;;;;;17.70;99.90;;;;;;4591974;19;19927;-24
2023/06/09 04:27:45;;;;;;;;;;;17.80;99.90;;;;;;4592086;19;19915;-31
2023/06/09 04:29:17;;;;;;;;;;;17.80;99.90;;;;;;4590188;19;19927;-31
2023/06/09 04:30:50;;;;;;;;;;;17.80;99.90;;;;;;4591844;19;19919;-30
2023/06/09 04:32:23;;;;;;;;;;;17.80;99.90;;;;;;4591859;19;19915;-31
2023/06/09 04:33:55;;;;;;;;;;;17.80;99.90;;;;;;4591826;19;19927;-34
2023/06/09 04:35:26;;;;;;;;;;;17.80;99.90;;;;;;4591786;19;19923;-33
2023/06/09 04:36:59;;;;;;;;;;;17.80;99.90;;;;;;4592195;19;19915;-34
2023/06/09 04:38:33;;;;;;;;;;;17.80;99.90;;;;;;4591197;19;19919;-26
2023/06/09 04:40:08;;;;;;;;;;;17.80;99.90;;;;;;4592059;19;19914;-29
2023/06/09 04:41:39;;;;;;;;;;;17.80;99.90;;;;;;4591760;19;19915;-26
2023/06/09 04:43:11;;;;;;;;;;;17.80;99.90;;;;;;4591642;19;19933;-31
2023/06/09 04:44:44;;;;;;;;;;;17.90;99.90;;;;;;4591498;19;19925;-32
2023/06/09 04:46:16;;;;;;;;;;;17.90;99.90;;;;;;4587719;19;21335;-32
2023/06/09 04:47:48;;;;;;;;;;;17.90;99.90;;;;;;4589584;19;19943;-33
2023/06/09 04:49:20;;;;;;;;;;;17.90;99.90;;;;;;4589119;19;19929;-28
2023/06/09 04:50:51;;;;;;;;;;;17.90;99.90;;;;;;4592420;19;19923;-31
2023/06/09 04:52:22;;;;;;;;;;;17.90;99.90;;;;;;4590787;19;19923;-26
2023/06/09 04:53:54;;;;;;;;;;;17.90;99.90;;;;;;4589538;19;20475;-25
2023/06/09 04:55:26;;;;;;;;;;;18.00;99.90;;;;;;4592278;19;19915;-26
2023/06/09 04:56:58;;;;;;;;;;;18.00;99.90;;;;;;4591222;19;19927;-29
2023/06/09 04:58:31;;;;;;;;;;;18.00;99.90;;;;;;4590501;19;19921;-26
2023/06/09 05:00:03;;;;;;;;;;;18.10;99.90;;;;;;4590283;19;20010;-25
2023/06/09 05:01:35;;;;;;;;;;;18.10;99.90;;;;;;4592007;19;20260;-30
2023/06/09 05:03:06;;;;;;;;;;;18.10;99.90;;;;;;4590736;19;20051;-29
2023/06/09 05:04:37;;;;;;;;;;;18.20;99.90;;;;;;4590499;19;19922;-30
2023/06/09 05:06:08;;;;;;;;;;;18.20;99.90;;;;;;4591365;19;19926;-25
2023/06/09 05:07:40;;;;;;;;;;;18.20;99.90;;;;;;4591893;19;19920;-28
2023/06/09 05:09:11;;;;;;;;;;;18.20;99.90;;;;;;4589491;19;19923;-24
2023/06/09 05:11:00;;;;;;;;;;;18.30;99.90;;;;;;4590843;19;19934;-27
2023/06/09 05:12:31;;;;;;;;;;;18.20;99.90;;;;;;4591414;19;19922;-29
2023/06/09 05:14:03;;;;;;;;;;;18.30;99.90;;;;;;4589094;19;19928;-27
2023/06/09 05:15:35;;;;;;;;;;;18.30;99.90;;;;;;4591798;19;19931;-28
2023/06/09 05:17:07;;;;;;;;;;;18.30;99.90;;;;;;4591730;19;19925;-28
2023/06/09 05:18:38;;;;;;;;;;;18.30;99.90;;;;;;4588632;19;20248;-31
2023/06/09 05:20:09;;;;;;;;;;;18.20;99.90;;;;;;4591918;19;19947;-35
2023/06/09 05:21:45;;;;;;;;;;;18.30;99.90;;;;;;4590457;19;19941;-29
2023/06/09 05:23:16;;;;;;;;;;;18.30;99.90;;;;;;4591476;19;19933;-26
2023/06/09 05:24:47;;;;;;;;;;;18.30;99.90;;;;;;4590586;19;19927;-32
2023/06/09 05:26:18;;;;;;;;;;;18.30;99.90;;;;;;4588694;19;19929;-33
2023/06/09 05:27:50;;;;;;;;;;;18.30;99.90;;;;;;4590959;19;19919;-26
2023/06/09 05:29:21;;;;;;;;;;;18.30;99.90;;;;;;4588728;19;19918;-27
2023/06/09 05:33:07;;;;;;;;;;;18.30;99.90;;;;;;4588787;19;20625;-29
2023/06/09 05:34:38;;;;;;;;;;;18.30;99.90;;;;;;4589057;19;19919;-28
2023/06/09 05:36:09;;;;;;;;;;;18.30;99.90;;;;;;4591632;19;20289;-28
2023/06/09 05:37:49;;;;;;;;;;;18.30;99.90;;;;;;4589682;19;19923;-32
2023/06/09 05:39:21;;;;;;;;;;;18.40;99.90;;;;;;4588515;19;19918;-35
2023/06/09 05:40:52;;;;;;;;;;;18.30;99.90;;;;;;4590474;19;19929;-24
2023/06/09 05:42:23;;;;;;;;;;;18.30;99.90;;;;;;4589958;19;19926;-27
2023/06/09 05:43:57;;;;;;;;;;;18.40;99.90;;;;;;4590831;19;20279;-28
2023/06/09 05:45:28;;;;;;;;;;;18.40;99.90;;;;;;4589811;19;19926;-26
2023/06/09 05:46:59;;;;;;;;;;;18.40;99.90;;;;;;4588652;19;19922;-26
2023/06/09 05:48:31;;;;;;;;;;;18.40;99.90;;;;;;4587904;19;19956;-33
2023/06/09 05:50:02;;;;;;;;;;;18.40;99.90;;;;;;4590209;19;19918;-30
2023/06/09 05:51:33;;;;;;;;;;;18.50;99.90;;;;;;4591010;19;19930;-27
2023/06/09 05:53:04;;;;;;;;;;;18.50;99.90;;;;;;4591086;19;19927;-28
2023/06/09 05:54:35;;;;;;;;;;;18.50;99.90;;;;;;4589900;19;19914;-26
2023/06/09 05:56:06;;;;;;;;;;;18.50;99.90;;;;;;4590305;19;19930;-35
2023/06/09 05:57:40;;;;;;;;;;;18.50;99.90;;;;;;4589834;19;19931;-28
2023/06/09 05:59:12;;;;;;;;;;;18.50;99.90;;;;;;4589342;19;20256;-26
2023/06/09 06:00:44;;;;;;;;;;;18.50;99.90;;;;;;4590348;19;19938;-26
2023/06/09 06:02:15;;;;;;;;;;;18.50;99.90;;;;;;4590586;19;19919;-30
2023/06/09 06:03:46;;;;;;;;;;;18.50;99.90;;;;;;4589894;19;19929;-30
2023/06/09 06:05:17;;;;;;;;;;;18.60;99.90;;;;;;4589842;19;20426;-26
2023/06/09 06:06:48;;;;;;;;;;;18.60;99.90;;;;;;4590525;19;19914;-26
2023/06/09 06:08:20;;;;;;;;;;;18.60;99.90;;;;;;4587724;19;19921;-27
2023/06/09 06:09:51;;;;;;;;;;;18.60;99.90;;;;;;4591074;19;20574;-27
2023/06/09 06:11:22;;;;;;;;;;;18.60;99.90;;;;;;4590057;19;19919;-27
2023/06/09 06:12:53;;;;;;;;;;;18.60;99.90;;;;;;4593643;19;19915;-26
2023/06/09 06:14:24;;;;;;;;;;;18.70;99.90;;;;;;4591056;19;20006;-33
2023/06/09 06:15:57;;;;;;;;;;;18.70;99.90;;;;;;4593509;19;19926;-26
2023/06/09 06:17:28;;;;;;;;;;;18.70;99.90;;;;;;4591632;19;19919;-36
2023/06/09 06:18:59;;;;;;;;;;;18.70;99.90;;;;;;4590239;19;19936;-26
2023/06/09 06:20:31;;;;;;;;;;;18.70;99.90;;;;;;4589715;19;19927;-26
2023/06/09 06:22:02;;;;;;;;;;;18.70;99.90;;;;;;4591244;19;19919;-27
2023/06/09 06:23:33;;;;;;;;;;;18.70;99.90;;;;;;4592939;19;19950;-28
2023/06/09 06:25:05;;;;;;;;;;;18.70;99.90;;;;;;4591544;19;19927;-25
2023/06/09 06:26:36;;;;;;;;;;;18.70;99.90;;;;;;4593504;19;19923;-28
2023/06/09 06:28:07;;;;;;;;;;;18.70;99.90;;;;;;4591930;19;19925;-27
2023/06/09 06:29:39;;;;;;;;;;;18.70;99.90;;;;;;4592032;19;19923;-28
2023/06/09 06:31:10;;;;;;;;;;;18.80;99.90;;;;;;4591713;19;19951;-31
2023/06/09 06:32:50;;;;;;;;;;;18.70;99.90;;;;;;4592513;19;20297;-31
2023/06/09 06:34:21;;;;;;;;;;;18.70;99.90;;;;;;4591376;19;19911;-28
2023/06/09 06:35:52;;;;;;;;;;;18.80;99.90;;;;;;4592241;19;20387;-40
2023/06/09 06:37:23;;;;;;;;;;;18.80;99.90;;;;;;4590613;19;19943;-33
2023/06/09 06:38:54;;;;;;;;;;;18.80;99.90;;;;;;4593419;19;19930;-39
2023/06/09 06:40:25;;;;;;;;;;;18.80;99.90;;;;;;4591563;19;19922;-26
2023/06/09 06:41:56;;;;;;;;;;;18.80;99.90;;;;;;4592563;19;19911;-27
2023/06/09 06:43:27;;;;;;;;;;;18.90;99.90;;;;;;4592851;19;19923;-32
2023/06/09 06:44:58;;;;;;;;;;;18.90;99.90;;;;;;4592732;19;19923;-36
2023/06/09 06:46:31;;;;;;;;;;;18.90;99.90;;;;;;4593476;19;19935;-31
2023/06/09 06:48:02;;;;;;;;;;;18.90;99.90;;;;;;4591746;19;20374;-26
2023/06/09 06:49:34;;;;;;;;;;;18.90;99.90;;;;;;4592938;19;19939;-31
2023/06/09 06:51:07;;;;;;;;;;;18.90;99.90;;;;;;4594655;19;20332;-30
2023/06/09 06:52:37;;;;;;;;;;;18.90;99.90;;;;;;4593465;19;19919;-30
2023/06/09 06:54:09;;;;;;;;;;;18.90;99.90;;;;;;4592136;19;19968;-32
2023/06/09 06:55:40;;;;;;;;;;;19.00;99.90;;;;;;4593987;19;19919;-28
2023/06/09 06:57:11;;;;;;;;;;;19.00;99.90;;;;;;4594745;19;19942;-29
2023/06/09 10:07:02;;;;;;;;;;;20.20;99.90;;;;;;4592773;19;20283;-29
2023/06/09 10:08:35;;;;;;;;;;;20.20;99.90;;;;;;4593888;19;19923;-26
2023/06/09 10:10:09;;;;;;;;;;;20.20;99.90;;;;;;4594726;19;19919;-24
2023/06/09 10:11:40;;;;;;;;;;;20.30;99.90;;;;;;4595004;19;19918;-24
2023/06/09 10:13:11;;;;;;;;;;;20.30;99.90;;;;;;4594884;19;19982;-26
2023/06/09 10:14:45;;;;;;;;;;;20.30;99.90;;;;;;4592735;19;19921;-23
2023/06/09 10:16:20;;;;;;;;;;;20.30;99.90;;;;;;4595016;19;19942;-26
2023/06/09 10:17:52;;;;;;;;;;;20.30;99.90;;;;;;4594877;19;19930;-24
2023/06/09 10:19:23;;;;;;;;;;;20.30;99.90;;;;;;4595315;19;19914;-24
2023/06/09 10:20:55;;;;;;;;;;;20.30;99.90;;;;;;4595513;19;20247;-29
2023/06/09 10:22:27;;;;;;;;;;;20.30;99.90;;;;;;4593724;19;19974;-23
2023/06/09 10:23:59;;;;;;;;;;;20.30;99.90;;;;;;4593511;19;20245;-26
2023/06/09 10:25:30;;;;;;;;;;;20.30;99.90;;;;;;4593344;19;19919;-24
2023/06/09 10:27:02;;;;;;;;;;;20.30;99.90;;;;;;4594061;19;20380;-23
2023/06/09 10:28:34;;;;;;;;;;;20.30;99.90;;;;;;4594634;19;19926;-27
2023/06/09 10:30:05;;;;;;;;;;;20.30;99.90;;;;;;4593358;19;19935;-24
2023/06/09 10:31:40;;;;;;;;;;;20.30;99.90;;;;;;4593979;19;20356;-23
2023/06/09 10:33:20;;;;;;;;;;;20.30;99.90;;;;;;4593787;19;19925;-23
2023/06/09 10:34:51;;;;;;;;;;;20.30;99.90;;;;;;4592777;19;19945;-23
2023/06/09 10:36:23;;;;;;;;;;;20.30;99.90;;;;;;4594585;19;19934;-26
2023/06/09 10:37:56;;;;;;;;;;;20.30;99.90;;;;;;4593440;19;19918;-24
2023/06/09 10:39:30;;;;;;;;;;;20.30;99.90;;;;;;4594563;19;20300;-24
2023/06/09 10:41:11;;;;;;;;;;;20.30;99.90;;;;;;4593738;19;19936;-23
2023/06/09 10:42:54;;;;;;;;;;;20.30;99.90;;;;;;4593233;19;20351;-23
2023/06/09 10:44:41;;;;;;;;;;;20.30;99.90;;;;;;4592864;19;19951;-26
2023/06/09 10:46:13;;;;;;;;;;;20.30;99.90;;;;;;4593454;19;19956;-27
2023/06/09 10:47:44;;;;;;;;;;;20.30;99.90;;;;;;4594610;19;20312;-25
2023/06/09 10:49:26;;;;;;;;;;;20.30;99.90;;;;;;4593902;19;20327;-26
2023/06/09 10:51:16;;;;;;;;;;;20.40;99.90;;;;;;4594522;19;19945;-25
2023/06/09 10:52:47;;;;;;;;;;;20.40;99.90;;;;;;4594387;19;19911;-25
2023/06/09 10:54:19;;;;;;;;;;;20.40;99.90;;;;;;4593345;19;19937;-23
2023/06/09 10:55:50;;;;;;;;;;;20.40;99.90;;;;;;4593973;19;19926;-24
2023/06/09 10:57:34;;;;;;;;;;;20.40;99.90;;;;;;4588516;19;19978;-29
2023/06/09 10:59:05;;;;;;;;;;;20.40;99.90;;;;;;4589915;19;19930;-23
2023/06/09 11:00:55;;;;;;;;;;;20.40;99.90;;;;;;4591166;19;20336;-26
2023/06/09 11:02:26;;;;;;;;;;;20.40;99.90;;;;;;4594298;19;19921;-22
2023/06/09 11:03:57;;;;;;;;;;;20.40;99.90;;;;;;4593909;19;20332;-21
2023/06/09 11:05:39;;;;;;;;;;;20.50;99.90;;;;;;4594373;19;19923;-27
2023/06/09 11:07:24;;;;;;;;;;;20.40;99.90;;;;;;4592008;19;19926;-26
2023/06/09 11:09:22;;;;;;;;;;;20.50;99.90;;;;;;4593113;19;19925;-25
2023/06/09 11:10:53;;;;;;;;;;;20.40;99.90;;;;;;4591116;19;19926;-24
2023/06/09 11:12:25;;;;;;;;;;;20.40;99.90;;;;;;4591253;19;19918;-24
2023/06/09 11:13:55;;;;;;;;;;;20.40;99.90;;;;;;4588858;19;19918;-25
2023/06/09 11:15:46;;;;;;;;;;;20.50;99.90;;;;;;4591549;19;20457;-23
2023/06/09 11:17:19;;;;;;;;;;;20.40;99.90;;;;;;4591706;19;19923;-25
2023/06/09 11:18:55;;;;;;;;;;;20.40;99.90;;;;;;4591002;19;19915;-26
2023/06/09 11:20:28;;;;;;;;;;;20.40;99.90;;;;;;4589583;19;19910;-23
2023/06/09 11:22:02;;;;;;;;;;;20.40;99.90;;;;;;4591921;19;20360;-23
2023/06/09 11:23:51;;;;;;;;;;;20.40;99.90;;;;;;4590740;19;20375;-28
2023/06/09 11:25:26;;;;;;;;;;;20.40;99.90;;;;;;4591639;19;19926;-25
2023/06/09 11:27:15;;;;;;;;;;;20.50;99.90;;;;;;4589321;19;19988;-27
2023/06/09 11:28:47;;;;;;;;;;;20.50;99.90;;;;;;4590637;19;19926;-23
2023/06/09 11:30:18;;;;;;;;;;;20.40;99.90;;;;;;4589620;19;19922;-24
2023/06/09 11:31:49;;;;;;;;;;;20.50;99.90;;;;;;4592174;19;19925;-29
2023/06/09 11:33:38;;;;;;;;;;;20.40;99.90;;;;;;4590774;19;20380;-23
2023/06/09 11:35:10;;;;;;;;;;;20.40;99.90;;;;;;4591511;19;19915;-27
2023/06/09 11:36:43;;;;;;;;;;;20.40;99.90;;;;;;4590569;19;19919;-28
2023/06/09 11:38:20;;;;;;;;;;;20.40;99.90;;;;;;4590466;19;19948;-23
2023/06/09 11:39:52;;;;;;;;;;;20.40;99.90;;;;;;4591702;19;20273;-23
2023/06/09 11:43:47;;;;;;;;;;;20.40;99.90;;;;;;4590901;19;20377;-24
2023/06/09 11:45:19;;;;;;;;;;;20.40;99.90;;;;;;4591533;19;19970;-22
2023/06/09 11:46:50;;;;;;;;;;;20.40;99.90;;;;;;4590132;19;20353;-25
2023/06/09 11:48:21;;;;;;;;;;;20.40;99.90;;;;;;4590875;19;19922;-24
2023/06/09 11:50:02;;;;;;;;;;;20.40;99.90;;;;;;4590189;19;19919;-23
2023/06/09 11:51:51;;;;;;;;;;;20.40;99.90;;;;;;4590298;19;20383;-23
2023/06/09 11:53:25;;;;;;;;;;;20.40;99.90;;;;;;4590962;19;20011;-23
2023/06/09 11:54:57;;;;;;;;;;;20.40;99.90;;;;;;4589411;19;19926;-23
2023/06/09 11:56:27;;;;;;;;;;;20.40;99.90;;;;;;4590983;19;19915;-22
2023/06/09 11:57:59;;;;;;;;;;;20.40;99.90;;;;;;4589344;19;19922;-22
2023/06/09 11:59:30;;;;;;;;;;;20.40;99.90;;;;;;4589960;19;19923;-23
2023/06/09 12:01:01;;;;;;;;;;;20.40;99.90;;;;;;4588931;19;19929;-27
2023/06/09 12:02:32;;;;;;;;;;;20.40;99.90;;;;;;4591682;19;20236;-23
2023/06/09 12:04:04;;;;;;;;;;;20.40;99.90;;;;;;4590449;19;19932;-26
2023/06/09 12:05:35;;;;;;;;;;;20.40;99.90;;;;;;4590543;19;19919;-24
2023/06/09 12:07:07;;;;;;;;;;;20.40;99.90;;;;;;4588963;19;19922;-25
2023/06/09 12:12:43;;;;;;;;;;;20.40;99.90;;;;;;4592384;19;19910;-24
2023/06/09 12:14:14;;;;;;;;;;;20.40;99.90;;;;;;4591927;19;19922;-24
2023/06/09 12:15:51;;;;;;;;;;;20.40;99.90;;;;;;4592678;19;19926;-23
2023/06/09 12:17:23;;;;;;;;;;;20.40;99.90;;;;;;4590582;19;20343;-24
2023/06/09 12:18:54;;;;;;;;;;;20.40;99.90;;;;;;4591684;19;20350;-24
2023/06/09 12:20:26;;;;;;;;;;;20.40;99.90;;;;;;4591769;19;19923;-22
2023/06/09 12:21:59;;;;;;;;;;;20.40;99.90;;;;;;4591925;19;19923;-24
2023/06/09 12:23:30;;;;;;;;;;;20.40;99.90;;;;;;4591429;19;19931;-23
2023/06/09 12:25:16;;;;;;;;;;;20.40;99.90;;;;;;4590700;19;20347;-23
2023/06/09 12:26:48;;;;;;;;;;;20.40;99.90;;;;;;4592682;19;19919;-28
2023/06/09 12:28:26;;;;;;;;;;;20.40;99.90;;;;;;4591712;19;19929;-24
2023/06/09 12:29:57;;;;;;;;;;;20.40;99.90;;;;;;4593066;19;19927;-29
2023/06/09 12:31:29;;;;;;;;;;;20.50;99.90;;;;;;4588492;19;19986;-23
2023/06/09 12:33:04;;;;;;;;;;;20.50;99.90;;;;;;4592362;19;20310;-23
2023/06/09 12:34:37;;;;;;;;;;;20.50;99.90;;;;;;4591823;19;19910;-23
2023/06/09 12:36:09;;;;;;;;;;;20.50;99.90;;;;;;4591863;19;19915;-24
2023/06/09 12:37:40;;;;;;;;;;;20.50;99.90;;;;;;4592908;19;19911;-26
2023/06/09 12:39:20;;;;;;;;;;;20.50;99.90;;;;;;4591965;19;19936;-24
2023/06/09 12:40:55;;;;;;;;;;;20.50;99.90;;;;;;4592846;19;19996;-24
2023/06/09 12:42:27;;;;;;;;;;;20.60;99.90;;;;;;4590692;19;19927;-23
2023/06/09 12:43:59;;;;;;;;;;;20.60;99.90;;;;;;4590744;19;19926;-26
2023/06/09 12:45:33;;;;;;;;;;;20.60;99.90;;;;;;4592521;19;19915;-24
2023/06/09 12:47:12;;;;;;;;;;;20.60;99.90;;;;;;4590757;19;19927;-23
2023/06/09 12:48:55;;;;;;;;;;;20.60;99.90;;;;;;4592018;19;19918;-23
2023/06/09 12:50:26;;;;;;;;;;;20.60;99.90;;;;;;4592135;19;20355;-23
2023/06/09 12:51:58;;;;;;;;;;;20.60;99.90;;;;;;4591143;19;19918;-23
2023/06/09 12:53:29;;;;;;;;;;;20.70;99.90;;;;;;4591212;19;19922;-27
2023/06/09 12:55:00;;;;;;;;;;;20.70;99.90;;;;;;4589766;19;19941;-27
2023/06/09 12:56:31;;;;;;;;;;;20.70;99.90;;;;;;4590602;19;19918;-23
2023/06/09 12:58:05;;;;;;;;;;;20.70;99.90;;;;;;4590167;19;19940;-24
2023/06/09 12:59:37;;;;;;;;;;;20.70;99.90;;;;;;4590331;19;20275;-24
2023/06/09 13:01:07;;;;;;;;;;;20.70;99.90;;;;;;4591624;19;20347;-22
2023/06/09 13:02:38;;;;;;;;;;;20.80;99.90;;;;;;4591930;19;19986;-22
2023/06/09 13:04:10;;;;;;;;;;;20.80;99.90;;;;;;4591089;19;19923;-24
2023/06/09 13:05:41;;;;;;;;;;;20.80;99.90;;;;;;4589652;19;19915;-24
2023/06/09 13:07:12;;;;;;;;;;;20.80;99.90;;;;;;4590844;19;19987;-23
2023/06/09 13:08:43;;;;;;;;;;;20.80;99.90;;;;;;4590164;19;20409;-21
2023/06/09 13:10:14;;;;;;;;;;;20.80;99.90;;;;;;4591078;19;19955;-28
2023/06/09 13:11:45;;;;;;;;;;;20.80;99.90;;;;;;4590699;19;20466;-23
2023/06/09 13:13:17;;;;;;;;;;;20.90;99.90;;;;;;4592113;19;19985;-25
2023/06/09 13:14:48;;;;;;;;;;;20.90;99.90;;;;;;4589971;19;19923;-24
2023/06/09 13:16:19;;;;;;;;;;;20.90;99.90;;;;;;4590081;19;19915;-23
2023/06/09 13:17:50;;;;;;;;;;;21.00;99.90;;;;;;4592087;19;19918;-26
2023/06/09 13:19:21;;;;;;;;;;;21.00;99.90;;;;;;4590875;19;19925;-24
2023/06/09 13:20:52;;;;;;;;;;;21.10;99.90;;;;;;4590617;19;20286;-24
2023/06/09 13:22:23;;;;;;;;;;;21.10;99.90;;;;;;4591009;19;19915;-23
2023/06/09 13:23:54;;;;;;;;;;;21.10;99.90;;;;;;4591685;19;19936;-26
2023/06/09 13:25:25;;;;;;;;;;;21.00;99.80;;;;;;4589298;19;19939;-24
2023/06/09 13:26:57;;;;;;;;;;;21.00;98.80;;;;;;4589798;19;19990;-28
2023/06/09 13:28:27;;;;;;;;;;;21.00;99.90;;;;;;4589830;19;19923;-26
2023/06/09 13:29:59;;;;;;;;;;;21.00;99.90;;;;;;4591357;19;19915;-24
2023/06/09 13:31:30;;;;;;;;;;;21.00;99.60;;;;;;4589870;19;19923;-24
2023/06/09 13:33:01;;;;;;;;;;;21.00;99.80;;;;;;4591067;19;19926;-23
2023/06/09 13:34:32;;;;;;;;;;;21.00;99.90;;;;;;4589363;19;19919;-29
2023/06/09 13:36:03;;;;;;;;;;;21.00;99.90;;;;;;4590591;19;19936;-24
2023/06/09 13:37:34;;;;;;;;;;;21.00;99.90;;;;;;4591186;19;19919;-23
2023/06/09 13:39:05;;;;;;;;;;;21.00;99.90;;;;;;4589843;19;19933;-23
2023/06/09 13:40:41;;;;;;;;;;;21.00;99.90;;;;;;4591809;19;19919;-24
2023/06/09 13:42:12;;;;;;;;;;;21.00;99.90;;;;;;4590729;19;19923;-24
2023/06/09 13:43:43;;;;;;;;;;;21.00;99.60;;;;;;4590952;19;19933;-24
2023/06/09 13:45:14;;;;;;;;;;;21.00;98.60;;;;;;4590627;19;19919;-23
2023/06/09 13:46:45;;;;;;;;;;;21.10;98.80;;;;;;4591298;19;19919;-22
2023/06/09 13:48:16;;;;;;;;;;;21.10;98.60;;;;;;4591424;19;19941;-24
2023/06/09 13:49:49;;;;;;;;;;;21.10;98.70;;;;;;4590228;19;20263;-23
2023/06/09 13:51:20;;;;;;;;;;;21.10;98.80;;;;;;4590325;19;19974;-23
2023/06/09 13:52:51;;;;;;;;;;;21.10;97.40;;;;;;4590147;19;19974;-25
2023/06/09 13:54:23;;;;;;;;;;;21.10;96.60;;;;;;4590125;19;19923;-24
2023/06/09 13:55:55;;;;;;;;;;;21.20;96.30;;;;;;4590018;19;19922;-24
2023/06/09 13:57:26;;;;;;;;;;;21.20;97.70;;;;;;4589645;19;19926;-26
2023/06/09 13:58:57;;;;;;;;;;;21.20;99.00;;;;;;4589717;19;19930;-27
2023/06/09 14:00:28;;;;;;;;;;;21.20;98.00;;;;;;4590265;19;19941;-25
2023/06/09 14:01:59;;;;;;;;;;;21.20;97.20;;;;;;4589918;19;19923;-24
2023/06/09 14:03:31;;;;;;;;;;;21.20;99.10;;;;;;4590132;19;19923;-24
2023/06/09 14:05:02;;;;;;;;;;;21.20;97.60;;;;;;4589664;19;19970;-24
2023/06/09 14:06:33;;;;;;;;;;;21.20;97.70;;;;;;4588040;19;19918;-24
2023/06/09 14:08:04;;;;;;;;;;;21.20;98.00;;;;;;4589082;19;19915;-23
2023/06/09 14:09:36;;;;;;;;;;;21.20;97.80;;;;;;4590337;19;19915;-28
2023/06/09 14:11:08;;;;;;;;;;;21.20;97.00;;;;;;4588831;19;19986;-24
2023/06/09 14:12:40;;;;;;;;;;;21.20;97.00;;;;;;4589710;19;20244;-23
2023/06/09 14:14:11;;;;;;;;;;;21.30;97.50;;;;;;4589069;19;19936;-24
2023/06/09 14:15:43;;;;;;;;;;;21.30;97.50;;;;;;4588224;19;19922;-22
2023/06/09 14:17:14;;;;;;;;;;;21.30;96.90;;;;;;4589007;19;19923;-23
2023/06/09 14:18:45;;;;;;;;;;;21.30;96.00;;;;;;4589157;19;19983;-22
2023/06/09 14:20:19;;;;;;;;;;;21.30;95.50;;;;;;4590949;19;20391;-23
2023/06/09 14:21:51;;;;;;;;;;;21.30;94.70;;;;;;4588197;19;19926;-23
2023/06/09 14:23:22;;;;;;;;;;;21.40;94.30;;;;;;4590449;19;19914;-22
2023/06/09 14:24:53;;;;;;;;;;;21.40;94.80;;;;;;4590828;19;20016;-24
2023/06/09 14:26:24;;;;;;;;;;;21.40;93.90;;;;;;4591765;19;19918;-24
2023/06/09 14:27:55;;;;;;;;;;;21.40;94.30;;;;;;4589886;19;20763;-24
2023/06/09 14:29:26;;;;;;;;;;;21.40;94.60;;;;;;4590928;19;19919;-25
2023/06/09 14:30:57;;;;;;;;;;;21.40;95.50;;;;;;4588861;19;19911;-23
2023/06/09 14:32:28;;;;;;;;;;;21.40;96.00;;;;;;4590413;19;19922;-23
2023/06/09 14:35:49;;;;;;;;;;;21.40;95.00;;;;;;4593562;19;20027;-23
2023/06/09 14:37:20;;;;;;;;;;;21.40;95.00;;;;;;4594725;19;19935;-24
2023/06/09 14:38:51;;;;;;;;;;;21.40;95.20;;;;;;4594426;19;19919;-23
2023/06/09 14:40:23;;;;;;;;;;;21.40;95.10;;;;;;4594470;19;19986;-23
2023/06/09 14:41:54;;;;;;;;;;;21.40;94.70;;;;;;4593887;19;19915;-24
2023/06/09 14:43:25;;;;;;;;;;;21.40;95.80;;;;;;4595797;19;19915;-24
2023/06/09 14:44:56;;;;;;;;;;;21.40;95.80;;;;;;4594299;19;19986;-24
2023/06/09 14:46:27;;;;;;;;;;;21.40;96.20;;;;;;4593687;19;19918;-24
2023/06/09 14:47:59;;;;;;;;;;;21.40;96.20;;;;;;4594882;19;19914;-25
2023/06/09 14:49:30;;;;;;;;;;;21.40;96.70;;;;;;4594040;19;19926;-27
2023/06/09 14:51:01;;;;;;;;;;;21.40;96.20;;;;;;4592965;19;19941;-24
2023/06/09 14:52:32;;;;;;;;;;;21.30;96.80;;;;;;4593048;19;20400;-23
2023/06/09 14:54:03;;;;;;;;;;;21.30;96.80;;;;;;4594052;19;19915;-23
2023/06/09 14:55:39;;;;;;;;;;;21.40;96.90;;;;;;4594295;19;19923;-24
2023/06/09 14:57:10;;;;;;;;;;;21.30;97.20;;;;;;4593943;19;19919;-24
2023/06/09 14:58:41;;;;;;;;;;;21.30;96.00;;;;;;4593095;19;19941;-24
2023/06/09 15:00:13;;;;;;;;;;;21.30;96.00;;;;;;4592990;19;19947;-25
2023/06/09 15:01:48;;;;;;;;;;;21.30;96.10;;;;;;4593639;19;19945;-23
2023/06/09 15:03:20;;;;;;;;;;;21.30;96.10;;;;;;4594353;19;19919;-25
2023/06/09 15:04:51;;;;;;;;;;;21.30;95.90;;;;;;4593521;19;19915;-24